This is the latest recevied weather packets stored in our database for station/object E22ZMG-4. If no packets are shown the sender has not sent any weather packets the latest 10 day(s).
| Time | Temp. | Humidity | Pressure | Rain* | Wind** | Luminosity | Snow |
|---|---|---|---|---|---|---|---|
| 1777448477 | 26.11° C | 43% | 974 hPa | - | - | 0 W/m² | - |
| 1777447852 | 26.67° C | 45% | 974 hPa | - | - | 0 W/m² | - |
| 1777447227 | 26.11° C | 43% | 974 hPa | - | - | 0 W/m² | - |
| 1777446602 | 25.56° C | 41% | 974 hPa | - | - | 0 W/m² | - |
| 1777445977 | 25.56° C | 42% | 975 hPa | - | - | 0 W/m² | - |
| 1777445353 | 26.11° C | 42% | 975 hPa | - | - | 0 W/m² | - |
| 1777444729 | 26.11° C | 45% | 975 hPa | - | - | 0 W/m² | - |
| 1777444105 | 26.11° C | 48% | 975 hPa | - | - | 0 W/m² | - |
| 1777443481 | 26.11° C | 43% | 975 hPa | - | - | 0 W/m² | - |
| 1777442855 | 26.11° C | 43% | 975 hPa | - | - | 0 W/m² | - |
| 1777442231 | 26.11° C | 45% | 975 hPa | - | - | 0 W/m² | - |
| 1777441607 | 26.11° C | 45% | 976 hPa | - | - | 0 W/m² | - |
| 1777440982 | 26.11° C | 45% | 976 hPa | - | - | 0 W/m² | - |
| 1777440358 | 26.67° C | 45% | 976 hPa | - | - | 0 W/m² | - |
| 1777439734 | 26.67° C | 46% | 976 hPa | - | - | 0 W/m² | - |
| 1777439109 | 26.67° C | 47% | 977 hPa | - | - | 0 W/m² | - |
| 1777438484 | 27.22° C | 49% | 977 hPa | - | - | 0 W/m² | - |
| 1777437860 | 26.11° C | 44% | 977 hPa | - | - | 0 W/m² | - |
| 1777437235 | 27.22° C | 44% | 977 hPa | - | - | 0 W/m² | - |
| 1777436611 | 27.78° C | 55% | 977 hPa | - | - | 0 W/m² | - |
| 1777435986 | 26.67° C | 41% | 977 hPa | - | - | 0 W/m² | - |
| 1777435362 | 27.22° C | 43% | 977 hPa | - | - | 0 W/m² | - |
| 1777434737 | 28.33° C | 44% | 977 hPa | - | - | 0 W/m² | - |
| 1777434113 | 30° C | 48% | 977 hPa | - | - | 0 W/m² | - |
| 1777433489 | 29.44° C | 48% | 977 hPa | - | - | 0 W/m² | - |
* Rain since midnight (hover to see other rain measurements)
** Current wind speed in m/s (hover to see current wind gust speed)